Time;durP1;ratioP1;P1;durP2;ratioP2;P2;SDS_P1;SDS_P2;PMS_P1;PMS_P2;Temp;Humidity;BMP_temperature;BMP_pressure;BME280_temperature;BME280_humidity;BME280_pressure;Samples;Min_cycle;Max_cycle;Signal;HPM_P1;HPM_P2
2023/09/15 00:01:31;;;;;;;1.60;1.40;;;22.20;59.30;;;;;;5112174;28;20189;-59
2023/09/15 00:04:02;;;;;;;1.73;1.55;;;22.20;59.30;;;;;;5111829;28;20651;-57
2023/09/15 00:06:29;;;;;;;2.47;1.40;;;22.20;59.40;;;;;;5111698;28;20555;-59
2023/09/15 00:08:57;;;;;;;3.42;1.58;;;22.20;59.30;;;;;;5113921;28;20219;-60
2023/09/15 00:11:40;;;;;;;2.10;1.52;;;22.20;59.30;;;;;;5099312;28;20640;-58
2023/09/15 00:14:10;;;;;;;2.20;1.40;;;22.20;59.40;;;;;;5095782;28;20244;-61
2023/09/15 00:16:38;;;;;;;2.22;1.40;;;22.10;59.30;;;;;;5115288;28;20190;-59
2023/09/15 00:19:06;;;;;;;1.85;1.38;;;22.10;59.30;;;;;;5115882;28;20749;-60
2023/09/15 00:21:33;;;;;;;2.15;1.42;;;22.10;59.30;;;;;;5115833;28;20276;-59
2023/09/15 00:24:02;;;;;;;1.60;1.40;;;22.10;59.30;;;;;;5116206;28;20303;-59
2023/09/15 00:26:30;;;;;;;2.13;1.38;;;22.20;59.30;;;;;;5116069;28;20316;-55
2023/09/15 00:28:57;;;;;;;1.60;1.30;;;22.10;59.30;;;;;;5115798;28;20217;-60
2023/09/15 00:31:25;;;;;;;2.05;1.45;;;22.10;59.30;;;;;;5115884;28;20364;-57
2023/09/15 00:33:52;;;;;;;2.13;1.60;;;22.10;59.30;;;;;;5115414;28;20650;-60
2023/09/15 00:36:19;;;;;;;1.92;1.38;;;22.10;59.30;;;;;;5115400;28;20192;-60
2023/09/15 00:38:46;;;;;;;1.60;1.50;;;22.10;59.30;;;;;;5115954;28;20276;-59
2023/09/15 00:41:15;;;;;;;1.65;1.35;;;22.10;59.30;;;;;;5115833;28;20218;-58
2023/09/15 00:43:42;;;;;;;2.65;1.42;;;22.10;59.30;;;;;;5115378;28;20292;-59
2023/09/15 00:46:11;;;;;;;2.17;1.25;;;22.20;59.40;;;;;;5115738;28;20201;-59
2023/09/15 00:48:39;;;;;;;2.10;1.30;;;22.10;59.30;;;;;;5115639;28;20197;-60
2023/09/15 00:51:07;;;;;;;1.80;1.50;;;22.10;59.30;;;;;;5115452;28;20272;-58
2023/09/15 00:53:36;;;;;;;2.38;1.45;;;22.10;59.30;;;;;;5115660;28;20197;-58
2023/09/15 00:56:05;;;;;;;2.97;1.38;;;22.10;59.30;;;;;;5115654;28;20213;-60
2023/09/15 00:58:35;;;;;;;2.15;1.45;;;22.10;59.30;;;;;;5115342;28;20190;-58
2023/09/15 01:01:06;;;;;;;2.45;1.45;;;22.10;59.30;;;;;;5115126;28;20767;-61
2023/09/15 01:03:38;;;;;;;2.53;1.50;;;22.10;59.30;;;;;;5115481;28;20253;-56
2023/09/15 01:06:06;;;;;;;2.83;1.27;;;22.10;59.30;;;;;;5115185;28;20221;-60
2023/09/15 01:08:35;;;;;;;3.38;1.58;;;22.10;59.30;;;;;;5115429;28;20261;-61
2023/09/15 01:11:04;;;;;;;3.00;1.67;;;22.10;59.30;;;;;;5115127;28;20219;-60
2023/09/15 01:13:33;;;;;;;1.45;1.30;;;22.00;59.30;;;;;;5115262;28;20280;-61
2023/09/15 01:16:06;;;;;;;1.42;1.15;;;22.10;59.40;;;;;;5115137;28;20209;-58
2023/09/15 01:18:41;;;;;;;1.40;1.00;;;22.10;59.40;;;;;;5115347;28;20286;-61
2023/09/15 01:21:36;;;;;;;2.55;1.50;;;22.00;59.30;;;;;;5113345;28;20299;-61
2023/09/15 01:24:43;;;;;;;2.20;1.30;;;22.00;59.30;;;;;;5114889;28;20217;-59
2023/09/15 01:27:58;;;;;;;2.20;1.40;;;22.00;59.40;;;;;;5091661;28;20193;-62
2023/09/15 01:30:28;;;;;;;1.35;1.10;;;22.00;59.40;;;;;;5050073;28;20286;-61
2023/09/15 01:32:57;;;;;;;1.67;1.30;;;22.00;59.40;;;;;;5114892;28;20190;-60
2023/09/15 01:35:26;;;;;;;2.25;1.27;;;22.00;59.40;;;;;;5114571;28;20227;-60
2023/09/15 01:37:53;;;;;;;2.17;1.25;;;22.00;59.40;;;;;;5114616;28;20189;-61
2023/09/15 01:40:20;;;;;;;1.77;1.23;;;22.00;59.40;;;;;;5114291;28;20806;-56
2023/09/15 01:42:50;;;;;;;2.15;1.30;;;22.00;59.50;;;;;;5114811;28;20185;-61
2023/09/15 01:45:17;;;;;;;3.33;1.45;;;22.00;59.40;;;;;;5114549;28;20229;-60
2023/09/15 01:47:46;;;;;;;2.33;1.52;;;22.00;59.50;;;;;;5114338;28;20232;-61
2023/09/15 01:50:15;;;;;;;2.10;1.27;;;22.00;59.50;;;;;;5114193;28;20270;-59
2023/09/15 01:52:43;;;;;;;1.45;1.30;;;22.00;59.50;;;;;;5114667;28;20196;-59
2023/09/15 01:55:12;;;;;;;3.05;1.38;;;22.00;59.50;;;;;;5114402;28;20217;-62
2023/09/15 01:57:39;;;;;;;1.52;1.10;;;22.00;59.50;;;;;;5114350;28;20275;-59
2023/09/15 02:00:08;;;;;;;1.63;1.30;;;22.00;59.50;;;;;;5114136;28;20654;-60
2023/09/15 02:02:36;;;;;;;3.90;1.60;;;22.00;59.50;;;;;;5114363;28;20186;-61
2023/09/15 02:05:05;;;;;;;1.50;1.10;;;22.00;59.60;;;;;;5113091;28;20221;-57
2023/09/15 02:07:32;;;;;;;1.15;1.05;;;22.10;60.30;;;;;;5113954;28;20280;-59
2023/09/15 02:09:59;;;;;;;2.90;1.60;;;22.00;59.60;;;;;;5113075;28;20292;-60
2023/09/15 02:12:27;;;;;;;2.90;1.45;;;22.00;59.60;;;;;;5113667;28;20302;-58
2023/09/15 02:14:54;;;;;;;2.97;1.38;;;22.00;59.60;;;;;;5113912;28;20209;-59
2023/09/15 02:17:21;;;;;;;1.98;1.45;;;21.90;59.50;;;;;;5113973;28;20190;-59
2023/09/15 02:19:49;;;;;;;2.35;1.30;;;22.00;59.70;;;;;;5113458;28;20209;-57
2023/09/15 02:22:18;;;;;;;2.15;1.30;;;22.00;59.60;;;;;;5113796;28;20193;-58
2023/09/15 02:24:45;;;;;;;1.70;1.50;;;22.00;59.70;;;;;;5113513;28;20303;-59
2023/09/15 02:27:12;;;;;;;3.58;1.42;;;22.00;59.70;;;;;;5113455;28;20726;-53
2023/09/15 02:29:40;;;;;;;1.88;1.30;;;22.00;59.70;;;;;;5113570;28;20217;-58
2023/09/15 02:32:07;;;;;;;3.65;1.33;;;22.00;59.70;;;;;;5113025;28;20185;-59
2023/09/15 02:34:34;;;;;;;2.75;1.40;;;22.00;59.80;;;;;;5113205;28;20225;-59
2023/09/15 02:37:02;;;;;;;4.15;1.30;;;22.00;59.80;;;;;;5113903;28;20273;-59
2023/09/15 02:39:31;;;;;;;2.33;1.17;;;22.00;59.80;;;;;;5113354;28;20233;-59
2023/09/15 02:41:58;;;;;;;1.83;1.30;;;22.00;59.80;;;;;;5113455;28;20185;-59
2023/09/15 02:44:25;;;;;;;2.00;1.58;;;22.00;59.80;;;;;;5113474;28;20220;-60
2023/09/15 02:46:52;;;;;;;2.05;1.33;;;21.90;59.80;;;;;;5111717;28;20280;-59
2023/09/15 02:49:20;;;;;;;1.60;1.35;;;22.00;60.70;;;;;;5112389;28;20205;-57
2023/09/15 02:51:47;;;;;;;4.53;1.73;;;22.00;59.90;;;;;;5113106;28;20589;-59
2023/09/15 02:54:14;;;;;;;2.38;1.50;;;22.00;59.90;;;;;;5113297;28;20216;-61
2023/09/15 02:56:43;;;;;;;3.00;1.95;;;22.00;59.90;;;;;;5113063;28;20213;-57
2023/09/15 02:59:10;;;;;;;1.90;1.60;;;22.00;59.90;;;;;;5112769;28;20698;-58
2023/09/15 03:01:37;;;;;;;1.63;1.40;;;22.00;59.90;;;;;;5112965;28;20213;-57
2023/09/15 03:04:05;;;;;;;4.38;1.83;;;22.00;59.90;;;;;;5112470;28;20694;-59
2023/09/15 03:06:33;;;;;;;2.72;1.55;;;21.90;59.90;;;;;;5113158;28;20222;-60
2023/09/15 03:09:00;;;;;;;2.55;1.45;;;22.00;60.00;;;;;;5112838;28;20285;-59
2023/09/15 03:11:27;;;;;;;2.45;1.52;;;22.00;60.10;;;;;;5112562;28;20296;-60
2023/09/15 03:14:23;;;;;;;3.30;1.63;;;22.00;60.00;;;;;;5112920;28;20193;-55
2023/09/15 03:16:50;;;;;;;2.38;1.48;;;22.00;60.10;;;;;;5110844;28;20592;-58
2023/09/15 03:19:17;;;;;;;2.88;1.70;;;22.00;60.10;;;;;;5112539;28;20189;-57
2023/09/15 03:21:44;;;;;;;2.63;1.42;;;22.00;60.10;;;;;;5112719;28;20213;-60
2023/09/15 03:24:11;;;;;;;3.63;1.55;;;21.90;60.00;;;;;;5112173;28;20192;-58
2023/09/15 03:26:39;;;;;;;3.20;1.55;;;21.90;60.00;;;;;;5111654;28;20778;-54
2023/09/15 03:29:07;;;;;;;1.80;1.45;;;21.90;60.10;;;;;;5109783;28;20204;-60
2023/09/15 03:31:35;;;;;;;2.85;1.92;;;21.90;60.90;;;;;;5106696;28;20213;-57
2023/09/15 03:34:03;;;;;;;2.00;1.55;;;22.00;60.20;;;;;;5110623;28;20185;-58
2023/09/15 03:36:36;;;;;;;3.15;1.75;;;22.00;60.20;;;;;;5105647;28;20215;-57
2023/09/15 03:39:06;;;;;;;3.80;1.67;;;22.00;60.20;;;;;;5112405;28;20272;-59
2023/09/15 03:41:34;;;;;;;2.97;1.60;;;21.90;60.20;;;;;;5096948;28;20229;-60
2023/09/15 03:44:01;;;;;;;4.03;1.73;;;21.90;60.20;;;;;;5091697;28;20273;-56
2023/09/15 03:46:29;;;;;;;2.10;1.70;;;21.90;60.20;;;;;;5112176;28;20300;-59
2023/09/15 03:48:57;;;;;;;2.85;1.75;;;21.90;60.30;;;;;;5111675;28;20234;-57
2023/09/15 03:51:26;;;;;;;4.38;1.70;;;21.90;60.20;;;;;;5100137;28;20218;-59
2023/09/15 03:53:53;;;;;;;4.20;2.15;;;21.90;60.30;;;;;;5092142;28;20564;-59
2023/09/15 03:56:20;;;;;;;3.60;2.03;;;21.90;60.30;;;;;;5111073;28;20223;-59
2023/09/15 03:58:49;;;;;;;4.13;2.17;;;21.90;60.30;;;;;;5112279;28;20192;-58
2023/09/15 04:01:19;;;;;;;3.65;1.85;;;22.00;60.40;;;;;;5111853;28;20244;-60
2023/09/15 04:03:47;;;;;;;2.92;1.80;;;21.90;60.30;;;;;;5112009;28;20189;-59
2023/09/15 04:06:16;;;;;;;3.70;2.30;;;21.90;60.30;;;;;;5104055;28;20279;-59
2023/09/15 04:08:43;;;;;;;4.45;2.08;;;21.90;60.30;;;;;;5112259;28;20603;-60
2023/09/15 04:11:10;;;;;;;2.28;1.90;;;21.90;60.30;;;;;;5108661;28;20217;-59
2023/09/15 04:13:37;;;;;;;3.20;1.95;;;21.90;60.30;;;;;;5112475;28;20264;-57
2023/09/15 04:16:05;;;;;;;3.30;1.92;;;21.90;60.40;;;;;;5111445;28;20300;-62
2023/09/15 04:18:32;;;;;;;3.63;2.20;;;21.90;60.40;;;;;;5112089;28;20185;-59
2023/09/15 04:21:01;;;;;;;5.57;2.60;;;21.90;61.20;;;;;;5103946;28;20213;-59
2023/09/15 04:23:30;;;;;;;3.35;2.17;;;21.90;60.50;;;;;;5112480;28;20219;-61
2023/09/15 04:25:57;;;;;;;3.67;2.35;;;21.90;60.40;;;;;;5104721;28;20301;-59
2023/09/15 04:28:24;;;;;;;5.40;2.65;;;21.90;60.40;;;;;;5091785;28;20198;-62
2023/09/15 04:30:52;;;;;;;2.92;2.22;;;21.90;60.50;;;;;;5091348;28;20297;-61
2023/09/15 04:33:19;;;;;;;3.75;2.90;;;21.90;60.50;;;;;;5112023;28;20193;-62
2023/09/15 04:35:48;;;;;;;4.50;2.38;;;21.80;60.30;;;;;;5103739;28;20301;-59
2023/09/15 04:41:07;;;;;;;3.65;2.30;;;21.80;60.40;;;;;;5093925;28;20205;-61
2023/09/15 04:43:35;;;;;;;4.35;2.70;;;21.90;60.50;;;;;;5111996;28;20190;-58
2023/09/15 04:46:02;;;;;;;4.72;2.92;;;21.90;60.60;;;;;;5111328;28;20282;-64
2023/09/15 04:48:33;;;;;;;3.03;2.33;;;21.90;60.60;;;;;;5111735;28;20671;-58
2023/09/15 04:51:00;;;;;;;3.72;2.63;;;21.90;60.60;;;;;;5111511;28;20223;-60
2023/09/15 04:53:27;;;;;;;3.53;2.42;;;21.90;60.60;;;;;;5111524;28;20807;-60
2023/09/15 04:55:55;;;;;;;4.43;2.75;;;21.90;60.60;;;;;;5114425;28;20217;-60
2023/09/15 04:58:26;;;;;;;4.55;2.40;;;21.80;60.50;;;;;;5115760;28;20185;-60
2023/09/15 05:01:00;;;;;;;3.35;2.70;;;21.90;60.60;;;;;;5114950;28;20217;-61
2023/09/15 05:03:27;;;;;;;4.63;2.22;;;21.80;60.50;;;;;;5115459;28;20628;-61
2023/09/15 05:05:55;;;;;;;4.38;2.55;;;21.90;60.60;;;;;;5115129;28;20297;-63
2023/09/15 05:08:23;;;;;;;3.60;2.50;;;21.80;60.50;;;;;;5115006;28;20186;-62
2023/09/15 05:10:50;;;;;;;3.03;2.33;;;21.80;60.50;;;;;;5115021;28;20221;-62
2023/09/15 05:13:17;;;;;;;3.92;2.40;;;21.90;60.70;;;;;;5115668;28;20193;-60
2023/09/15 05:15:46;;;;;;;2.65;2.17;;;21.80;60.50;;;;;;5114864;28;20275;-58
2023/09/15 05:18:13;;;;;;;3.28;2.40;;;21.80;60.60;;;;;;5115329;28;20181;-61
2023/09/15 05:20:41;;;;;;;4.03;2.70;;;21.90;60.70;;;;;;5114707;28;20295;-62
2023/09/15 05:23:08;;;;;;;4.07;2.10;;;21.80;60.50;;;;;;5114755;28;20189;-62
2023/09/15 05:25:35;;;;;;;3.70;2.60;;;21.80;60.60;;;;;;5114673;28;20225;-59
2023/09/15 05:28:03;;;;;;;4.38;2.60;;;21.80;60.60;;;;;;5094899;28;20197;-62
2023/09/15 05:30:32;;;;;;;3.08;2.72;;;21.80;60.50;;;;;;5093980;28;20202;-62
2023/09/15 05:33:01;;;;;;;3.50;2.60;;;21.80;60.60;;;;;;5114535;28;20193;-58
2023/09/15 05:35:28;;;;;;;3.47;2.70;;;21.80;60.60;;;;;;5114718;28;20189;-62
2023/09/15 05:37:56;;;;;;;4.90;2.45;;;21.80;60.60;;;;;;5114512;28;20193;-62
2023/09/15 05:40:23;;;;;;;3.25;2.63;;;21.80;60.60;;;;;;5114393;28;20217;-60
2023/09/15 05:42:51;;;;;;;3.95;2.58;;;21.80;60.60;;;;;;5114864;28;20217;-56
2023/09/15 05:45:18;;;;;;;3.10;2.38;;;21.80;60.60;;;;;;5114481;28;20286;-60
2023/09/15 05:47:46;;;;;;;2.38;2.08;;;21.80;60.60;;;;;;5114593;28;20256;-59
2023/09/15 05:50:14;;;;;;;3.50;2.58;;;21.80;61.40;;;;;;5114206;28;20643;-60
2023/09/15 05:52:42;;;;;;;2.33;1.92;;;21.80;60.60;;;;;;5114474;28;20260;-58
2023/09/15 05:55:10;;;;;;;4.07;2.70;;;21.80;60.60;;;;;;5114468;28;20204;-56
2023/09/15 05:57:37;;;;;;;3.05;2.30;;;21.80;60.60;;;;;;5114407;28;20245;-58
2023/09/15 06:00:34;;;;;;;4.43;2.38;;;21.80;60.60;;;;;;5113826;28;20181;-58
2023/09/15 06:03:05;;;;;;;4.47;2.60;;;21.80;60.60;;;;;;5112660;28;20276;-60
2023/09/15 06:05:34;;;;;;;3.40;2.30;;;21.80;60.60;;;;;;5113912;28;20619;-59
2023/09/15 06:08:03;;;;;;;3.05;2.25;;;21.80;60.60;;;;;;5113306;28;20737;-61
2023/09/15 06:10:30;;;;;;;5.43;1.95;;;21.70;60.50;;;;;;5114083;28;20193;-52
2023/09/15 06:12:58;;;;;;;2.97;2.38;;;21.70;60.50;;;;;;5096715;28;20210;-56
2023/09/15 06:15:26;;;;;;;2.72;2.10;;;21.80;60.60;;;;;;5099364;27;20283;-56
2023/09/15 06:17:54;;;;;;;3.28;2.25;;;21.80;60.60;;;;;;5098510;27;20930;-56
2023/09/15 06:20:26;;;;;;;4.10;2.70;;;21.80;60.60;;;;;;5093407;28;20212;-56
2023/09/15 06:22:55;;;;;;;2.92;2.20;;;21.80;60.50;;;;;;5109134;28;20835;-56
2023/09/15 06:25:28;;;;;;;2.70;2.10;;;21.80;60.50;;;;;;5107139;28;20261;-56
2023/09/15 06:27:55;;;;;;;4.78;2.53;;;21.90;60.60;;;;;;5090229;28;20213;-54
2023/09/15 06:30:22;;;;;;;2.97;2.13;;;21.90;60.50;;;;;;5092870;28;20216;-52
2023/09/15 06:32:54;;;;;;;6.68;2.50;;;21.90;60.50;;;;;;5089336;28;20288;-55
2023/09/15 06:35:21;;;;;;;2.90;2.15;;;21.90;60.40;;;;;;5092962;28;20652;-54
2023/09/15 06:37:49;;;;;;;3.25;2.58;;;21.90;60.30;;;;;;5092375;28;20217;-54
2023/09/15 06:40:18;;;;;;;3.22;2.33;;;21.90;60.30;;;;;;5093277;28;20193;-56
2023/09/15 06:42:46;;;;;;;4.50;2.58;;;21.90;60.30;;;;;;5088086;28;20703;-52
2023/09/15 06:45:13;;;;;;;3.88;2.30;;;21.90;60.20;;;;;;5092730;28;20190;-55
2023/09/15 06:47:41;;;;;;;3.00;2.08;;;22.00;60.30;;;;;;5092496;28;20739;-52
2023/09/15 06:50:08;;;;;;;2.40;2.00;;;22.00;60.20;;;;;;5078661;28;20913;-54
2023/09/15 06:52:39;;;;;;;3.33;2.20;;;22.00;60.20;;;;;;5084017;28;20222;-52
2023/09/15 06:55:06;;;;;;;3.22;2.47;;;22.00;60.20;;;;;;5090839;28;20190;-53
2023/09/15 06:57:35;;;;;;;3.17;2.17;;;22.00;60.20;;;;;;5092171;28;20268;-53
2023/09/15 07:00:03;;;;;;;3.67;2.30;;;22.00;60.10;;;;;;5087894;28;20190;-53
2023/09/15 07:02:31;;;;;;;3.03;2.30;;;22.00;60.10;;;;;;5092459;28;20210;-52
2023/09/15 07:04:58;;;;;;;2.42;1.90;;;22.00;60.10;;;;;;5092349;28;20226;-54
2023/09/15 07:07:26;;;;;;;2.95;2.22;;;22.00;60.10;;;;;;5089398;28;20253;-53
2023/09/15 07:09:52;;;;;;;3.83;2.42;;;22.00;60.10;;;;;;5092031;28;20674;-53
2023/09/15 07:12:20;;;;;;;4.55;2.28;;;22.10;60.20;;;;;;5092549;28;20305;-54
2023/09/15 07:14:50;;;;;;;5.95;2.25;;;22.00;60.20;;;;;;5082340;28;20215;-54
2023/09/15 07:17:18;;;;;;;3.33;2.72;;;22.20;60.60;;;;;;5079575;28;20276;-54
2023/09/15 07:19:46;;;;;;;4.80;3.00;;;22.10;60.60;;;;;;5091731;28;20265;-52
2023/09/15 07:22:13;;;;;;;4.28;2.50;;;22.10;60.60;;;;;;5090676;28;20218;-58
2023/09/15 07:24:41;;;;;;;3.22;2.60;;;22.00;60.50;;;;;;5089061;28;20201;-58
2023/09/15 07:27:08;;;;;;;16.48;3.28;;;22.10;60.60;;;;;;5091957;28;20225;-60
2023/09/15 07:29:38;;;;;;;4.63;3.00;;;22.10;60.70;;;;;;5082980;28;20728;-60
2023/09/15 07:32:07;;;;;;;6.93;3.53;;;22.10;60.70;;;;;;5077251;28;20214;-60
2023/09/15 07:34:34;;;;;;;6.93;3.55;;;22.10;60.70;;;;;;5083982;28;20282;-60
2023/09/15 07:37:06;;;;;;;10.43;3.72;;;22.10;60.70;;;;;;5076468;28;20313;-55
2023/09/15 07:39:34;;;;;;;8.95;4.10;;;22.10;60.70;;;;;;5091575;28;20186;-56
2023/09/15 07:42:08;;;;;;;6.60;4.05;;;22.20;60.80;;;;;;5091742;28;20214;-55
2023/09/15 07:44:37;;;;;;;6.63;4.10;;;22.20;60.80;;;;;;5088611;28;20196;-54
2023/09/15 07:47:06;;;;;;;10.43;4.00;;;22.20;60.90;;;;;;5091203;28;20225;-53
2023/09/15 07:49:39;;;;;;;7.53;3.60;;;22.20;60.80;;;;;;5076121;28;20626;-51
2023/09/15 07:52:33;;;;;;;6.45;4.15;;;22.10;60.70;;;;;;5073089;28;20631;-51
2023/09/15 07:55:18;;;;;;;6.40;4.20;;;22.20;60.80;;;;;;5029838;28;20204;-53
2023/09/15 07:57:45;;;;;;;8.98;4.10;;;22.20;60.80;;;;;;5026229;28;20267;-54
2023/09/15 08:00:13;;;;;;;5.53;3.88;;;22.20;60.80;;;;;;5025933;28;20287;-55
2023/09/15 08:03:03;;;;;;;10.48;4.32;;;22.10;60.70;;;;;;5016671;28;20264;-56
2023/09/15 08:05:31;;;;;;;10.75;4.78;;;22.20;60.90;;;;;;5019354;28;20207;-55
2023/09/15 08:07:58;;;;;;;7.70;3.97;;;22.20;60.80;;;;;;5023521;28;20338;-53
2023/09/15 08:10:29;;;;;;;6.90;4.10;;;22.30;60.90;;;;;;5028134;28;20203;-52
2023/09/15 08:12:58;;;;;;;7.55;4.25;;;22.30;60.80;;;;;;5023318;28;20622;-53
2023/09/15 08:15:26;;;;;;;8.50;4.50;;;22.40;61.60;;;;;;5027548;28;20239;-51
2023/09/15 08:17:55;;;;;;;8.73;4.07;;;22.40;60.80;;;;;;5027736;28;20228;-54
2023/09/15 08:23:24;;;;;;;7.10;3.97;;;22.40;60.80;;;;;;5026649;28;20208;-54
2023/09/15 08:26:31;;;;;;;6.50;3.75;;;22.40;60.70;;;;;;5037463;28;20278;-51
2023/09/15 08:28:59;;;;;;;8.48;4.07;;;22.40;61.40;;;;;;5027007;28;20212;-58
2023/09/15 08:36:56;;;;;;;6.80;3.92;;;22.50;60.60;;;;;;5096369;28;20220;-55
2023/09/15 08:39:24;;;;;;;6.13;3.47;;;22.40;60.50;;;;;;5111688;28;20189;-56
2023/09/15 08:45:24;;;;;;;5.90;3.42;;;22.50;60.70;;;;;;5091410;28;20261;-55
2023/09/15 08:48:04;;;;;;;4.15;3.45;;;22.50;60.90;;;;;;5093667;28;20812;-55
2023/09/15 08:50:34;;;;;;;6.95;3.55;;;22.40;60.70;;;;;;5086320;28;20194;-53
2023/09/15 08:53:02;;;;;;;5.53;3.33;;;22.50;60.90;;;;;;5077756;28;20305;-54
2023/09/15 09:02:44;;;;;;;5.13;3.28;;;22.50;61.10;;;;;;5070879;28;20268;-54
2023/09/15 09:05:11;;;;;;;6.05;3.40;;;22.50;61.30;;;;;;5071688;28;20205;-53
2023/09/15 09:10:26;;;;;;;4.70;3.13;;;22.50;61.20;;;;;;5071777;28;20210;-56
2023/09/15 09:12:54;;;;;;;4.82;2.97;;;22.60;61.40;;;;;;5085312;28;20216;-53
2023/09/15 09:15:36;;;;;;;5.00;3.22;;;22.50;61.30;;;;;;5084272;28;20298;-51
2023/09/15 09:18:15;;;;;;;4.55;3.10;;;22.60;61.30;;;;;;5079755;28;20300;-53
2023/09/15 09:20:43;;;;;;;5.93;3.20;;;22.50;61.10;;;;;;5074551;28;20203;-50
2023/09/15 09:23:12;;;;;;;6.85;3.08;;;22.60;61.40;;;;;;5074956;28;20219;-52
2023/09/15 09:25:39;;;;;;;8.32;3.38;;;22.60;61.30;;;;;;5073573;28;20218;-56
2023/09/15 09:28:07;;;;;;;4.47;2.97;;;22.60;61.30;;;;;;5090875;28;20643;-54
2023/09/15 09:30:44;;;;;;;5.45;3.35;;;22.60;61.10;;;;;;5072665;28;20230;-57
2023/09/15 09:33:12;;;;;;;7.97;3.45;;;22.60;61.10;;;;;;5082576;28;20214;-54
2023/09/15 09:38:25;;;;;;;9.93;3.40;;;22.60;61.10;;;;;;5022285;28;20216;-57
2023/09/15 09:40:55;;;;;;;7.97;2.92;;;22.60;61.10;;;;;;5000168;28;20197;-56
2023/09/15 09:43:22;;;;;;;5.57;3.05;;;22.70;61.20;;;;;;5073228;28;20280;-57
2023/09/15 09:45:51;;;;;;;5.88;3.03;;;22.60;61.00;;;;;;5065991;28;20201;-55
2023/09/15 09:48:23;;;;;;;7.97;3.40;;;22.60;60.90;;;;;;5081077;28;20254;-57
2023/09/15 09:50:52;;;;;;;4.88;3.17;;;22.60;60.70;;;;;;5076002;28;20191;-57
2023/09/15 09:53:28;;;;;;;6.97;3.28;;;22.60;60.70;;;;;;5075018;28;20218;-55
2023/09/15 09:55:58;;;;;;;6.00;3.13;;;22.70;60.80;;;;;;5066585;28;20194;-56
2023/09/15 09:58:27;;;;;;;6.38;2.75;;;22.70;60.70;;;;;;5058509;28;20315;-57
2023/09/15 10:00:54;;;;;;;8.93;3.03;;;22.70;60.60;;;;;;5072859;28;20290;-54
2023/09/15 10:03:22;;;;;;;5.28;3.00;;;22.70;60.60;;;;;;5060263;28;20215;-57
2023/09/15 10:08:34;;;;;;;8.20;2.92;;;22.70;60.50;;;;;;5082496;28;20253;-57
2023/09/15 10:11:04;;;;;;;5.88;3.05;;;22.70;60.50;;;;;;5076858;28;20195;-53
2023/09/15 10:13:33;;;;;;;5.00;3.00;;;22.70;60.40;;;;;;5079052;28;20320;-54
2023/09/15 10:16:00;;;;;;;5.15;2.95;;;22.70;60.40;;;;;;5077445;28;20210;-56
2023/09/15 10:18:28;;;;;;;6.15;3.30;;;22.70;60.30;;;;;;5064022;28;20228;-55
2023/09/15 10:20:58;;;;;;;4.05;2.72;;;22.70;60.30;;;;;;5072736;28;20191;-57
2023/09/15 10:23:25;;;;;;;6.18;3.70;;;22.70;60.30;;;;;;5067587;28;20881;-55
2023/09/15 10:25:54;;;;;;;3.97;2.80;;;22.70;60.20;;;;;;5068968;28;20280;-58
2023/09/15 10:28:23;;;;;;;6.60;2.97;;;22.70;60.20;;;;;;5077553;28;20696;-55
2023/09/15 10:30:59;;;;;;;4.00;2.67;;;22.70;60.20;;;;;;5080892;28;20286;-53
2023/09/15 10:33:27;;;;;;;6.05;3.28;;;22.70;60.10;;;;;;5073727;28;20218;-56
2023/09/15 10:36:21;;;;;;;5.63;3.03;;;22.70;60.20;;;;;;5075361;28;20191;-57
2023/09/15 10:38:48;;;;;;;6.70;3.15;;;22.70;60.20;;;;;;5059799;28;20228;-56
2023/09/15 10:41:27;;;;;;;5.10;2.78;;;22.70;60.10;;;;;;5073622;28;20590;-56
2023/09/15 10:43:55;;;;;;;4.25;2.67;;;22.80;60.20;;;;;;5078655;28;20301;-56
2023/09/15 10:46:23;;;;;;;7.07;2.85;;;22.70;60.00;;;;;;5066856;28;20199;-57
2023/09/15 10:49:14;;;;;;;5.72;3.35;;;22.70;60.00;;;;;;5072828;28;20305;-56
2023/09/15 10:52:02;;;;;;;5.22;3.40;;;22.70;60.00;;;;;;5068327;28;21587;-54
2023/09/15 10:54:32;;;;;;;6.03;2.85;;;22.70;60.10;;;;;;5018611;28;20218;-58
2023/09/15 11:00:05;;;;;;;7.53;3.47;;;22.80;60.20;;;;;;5073908;28;20296;-53
2023/09/15 11:02:35;;;;;;;4.07;2.60;;;22.70;60.00;;;;;;5064504;28;20191;-54
2023/09/15 11:05:04;;;;;;;6.55;2.95;;;22.70;60.10;;;;;;5074910;28;20314;-54
2023/09/15 11:07:34;;;;;;;4.72;3.40;;;22.70;60.10;;;;;;5064594;28;20214;-54
2023/09/15 11:10:02;;;;;;;4.70;2.80;;;22.70;60.10;;;;;;5072116;28;20222;-55
2023/09/15 11:12:31;;;;;;;5.07;3.38;;;22.70;60.10;;;;;;5071210;28;20222;-51
2023/09/15 11:15:00;;;;;;;6.10;3.10;;;22.70;60.10;;;;;;5066775;28;20298;-55
2023/09/15 11:17:30;;;;;;;4.55;3.10;;;22.70;60.10;;;;;;5071538;28;20251;-55
2023/09/15 11:19:59;;;;;;;4.18;3.00;;;22.70;60.10;;;;;;5078288;28;20207;-54
2023/09/15 11:22:26;;;;;;;5.35;3.03;;;22.70;60.10;;;;;;5071753;28;20206;-57
2023/09/15 11:24:54;;;;;;;13.23;3.33;;;22.60;60.00;;;;;;5065054;28;20224;-54
2023/09/15 11:27:21;;;;;;;5.18;2.50;;;22.70;60.10;;;;;;5094602;28;20214;-56
2023/09/15 11:30:03;;;;;;;6.55;2.80;;;22.70;60.10;;;;;;5108843;28;20299;-55
2023/09/15 11:35:21;;;;;;;5.15;3.25;;;22.70;60.10;;;;;;4990289;28;20228;-55
2023/09/15 11:37:59;;;;;;;4.57;3.10;;;22.70;60.10;;;;;;5022518;28;20291;-55
2023/09/15 11:40:26;;;;;;;4.72;2.75;;;22.70;60.10;;;;;;5017185;28;20318;-57
2023/09/15 11:42:55;;;;;;;3.83;3.00;;;22.70;60.10;;;;;;5028613;28;20729;-56
2023/09/15 11:45:28;;;;;;;3.80;2.95;;;22.70;60.10;;;;;;5009005;28;20216;-57
2023/09/15 11:47:56;;;;;;;5.25;3.03;;;22.70;60.20;;;;;;5021981;28;20780;-56
2023/09/15 11:53:40;;;;;;;6.68;3.08;;;22.70;60.10;;;;;;4999530;28;20632;-56
2023/09/15 11:56:07;;;;;;;4.85;3.08;;;22.70;60.10;;;;;;5009909;28;20280;-57
2023/09/15 11:58:34;;;;;;;3.85;2.83;;;22.70;60.10;;;;;;5021719;28;20399;-56
2023/09/15 12:01:05;;;;;;;6.38;3.20;;;22.70;60.10;;;;;;5026822;28;20228;-55
2023/09/15 12:03:47;;;;;;;4.40;2.75;;;22.70;60.10;;;;;;5016657;28;21619;-57
2023/09/15 12:07:05;;;;;;;5.78;3.20;;;22.70;60.10;;;;;;5019408;28;20417;-56
2023/09/15 12:09:33;;;;;;;4.22;2.78;;;22.70;60.00;;;;;;5027054;28;20224;-56
2023/09/15 12:12:04;;;;;;;5.43;2.83;;;22.80;60.10;;;;;;5051835;28;20193;-57
2023/09/15 12:14:31;;;;;;;5.45;2.60;;;22.70;60.00;;;;;;5111825;28;20224;-52
2023/09/15 12:20:00;;;;;;;4.25;2.95;;;22.80;60.00;;;;;;5099361;28;20332;-52
2023/09/15 12:22:39;;;;;;;4.70;2.92;;;22.80;60.00;;;;;;5097698;28;20221;-58
2023/09/15 12:25:11;;;;;;;5.30;2.75;;;22.80;60.00;;;;;;5093743;28;20237;-54
2023/09/15 12:27:49;;;;;;;4.30;2.60;;;22.80;60.00;;;;;;5069851;28;20658;-57
2023/09/15 12:33:06;;;;;;;5.78;2.85;;;22.80;59.90;;;;;;5086123;28;20739;-59
2023/09/15 12:36:00;;;;;;;3.50;2.60;;;22.80;59.90;;;;;;5072634;28;20315;-54
2023/09/15 12:38:48;;;;;;;3.95;2.63;;;22.80;59.90;;;;;;5075481;28;20201;-58
2023/09/15 12:41:24;;;;;;;3.83;2.60;;;22.80;59.80;;;;;;4973389;28;20230;-56
2023/09/15 12:43:51;;;;;;;5.28;2.50;;;22.80;59.80;;;;;;4982046;28;20209;-57
2023/09/15 12:46:18;;;;;;;4.78;2.35;;;22.80;59.90;;;;;;4975585;28;20333;-57
2023/09/15 12:48:47;;;;;;;4.95;2.70;;;22.80;59.80;;;;;;4990139;28;20221;-56
2023/09/15 12:51:17;;;;;;;5.00;3.00;;;22.80;59.80;;;;;;4972371;28;20206;-55
2023/09/15 12:53:44;;;;;;;2.97;2.38;;;22.80;59.80;;;;;;4986358;28;20212;-55
2023/09/15 12:56:12;;;;;;;3.55;2.38;;;22.80;59.80;;;;;;4985143;28;20194;-58
2023/09/15 13:01:34;;;;;;;4.40;2.85;;;22.80;59.70;;;;;;4991054;28;20518;-54
2023/09/15 13:04:03;;;;;;;3.75;2.67;;;22.80;59.80;;;;;;4986937;28;20189;-55
2023/09/15 13:06:30;;;;;;;4.00;2.60;;;22.80;59.80;;;;;;4982195;28;20215;-53
2023/09/15 13:09:04;;;;;;;5.10;2.40;;;22.90;59.90;;;;;;4979226;28;20314;-53
2023/09/15 13:11:32;;;;;;;3.30;2.53;;;22.80;59.80;;;;;;4963614;28;20795;-50
2023/09/15 13:14:02;;;;;;;4.60;2.63;;;22.90;59.90;;;;;;4979466;28;20199;-57
2023/09/15 13:16:30;;;;;;;5.28;2.63;;;22.80;59.80;;;;;;4971606;28;20305;-58
2023/09/15 13:19:15;;;;;;;2.65;2.25;;;22.90;59.90;;;;;;5053744;28;20206;-55
2023/09/15 13:21:52;;;;;;;4.05;2.60;;;22.90;59.90;;;;;;5076295;28;20206;-51
2023/09/15 13:24:19;;;;;;;6.72;3.00;;;22.80;59.80;;;;;;5079590;28;20289;-58
2023/09/15 13:26:47;;;;;;;3.15;2.65;;;22.90;60.00;;;;;;5085660;28;20248;-56
2023/09/15 13:32:07;;;;;;;3.80;2.67;;;22.90;60.00;;;;;;5071868;28;20593;-57
2023/09/15 13:34:36;;;;;;;5.97;2.55;;;22.90;60.00;;;;;;5079099;28;20199;-56
2023/09/15 13:37:03;;;;;;;4.07;2.78;;;22.90;60.00;;;;;;5074377;28;20308;-53
2023/09/15 13:39:30;;;;;;;3.28;2.28;;;22.90;60.10;;;;;;5070563;28;20198;-52
2023/09/15 13:45:14;;;;;;;4.75;3.00;;;22.90;60.10;;;;;;5081006;28;20229;-56
2023/09/15 13:47:44;;;;;;;3.80;2.58;;;22.90;60.30;;;;;;5072507;28;20261;-54
2023/09/15 13:50:22;;;;;;;5.38;2.58;;;22.90;60.30;;;;;;5080239;28;20191;-53
2023/09/15 13:53:00;;;;;;;4.05;2.78;;;22.90;60.40;;;;;;5084057;28;20250;-57
2023/09/15 13:55:29;;;;;;;4.68;3.13;;;22.90;60.40;;;;;;5068396;28;20313;-58